sensor_id;sensor_type;location;lat;lon;timestamp;temperature;humidity
42097;DHT22;27754;45.414;11.084;2024-02-15T00:01:02;7.30;85.30
42097;DHT22;27754;45.414;11.084;2024-02-15T00:03:31;7.30;85.40
42097;DHT22;27754;45.414;11.084;2024-02-15T00:05:58;7.40;85.40
42097;DHT22;27754;45.414;11.084;2024-02-15T00:08:25;7.40;85.20
42097;DHT22;27754;45.414;11.084;2024-02-15T00:10:53;7.50;84.80
42097;DHT22;27754;45.414;11.084;2024-02-15T00:13:20;7.50;84.60
42097;DHT22;27754;45.414;11.084;2024-02-15T00:15:48;7.50;84.80
42097;DHT22;27754;45.414;11.084;2024-02-15T00:18:16;7.50;84.80
42097;DHT22;27754;45.414;11.084;2024-02-15T00:20:43;7.40;85.10
42097;DHT22;27754;45.414;11.084;2024-02-15T00:23:11;7.40;84.80
42097;DHT22;27754;45.414;11.084;2024-02-15T00:25:38;7.30;84.80
42097;DHT22;27754;45.414;11.084;2024-02-15T00:28:06;7.30;84.90
42097;DHT22;27754;45.414;11.084;2024-02-15T00:30:34;7.20;85.10
42097;DHT22;27754;45.414;11.084;2024-02-15T00:33:01;7.30;84.70
42097;DHT22;27754;45.414;11.084;2024-02-15T00:35:30;7.30;84.30
42097;DHT22;27754;45.414;11.084;2024-02-15T00:37:57;7.20;84.40
42097;DHT22;27754;45.414;11.084;2024-02-15T00:40:24;7.30;84.90
42097;DHT22;27754;45.414;11.084;2024-02-15T00:42:51;7.20;85.30
42097;DHT22;27754;45.414;11.084;2024-02-15T00:45:18;7.10;85.40
42097;DHT22;27754;45.414;11.084;2024-02-15T00:47:45;7.00;85.50
42097;DHT22;27754;45.414;11.084;2024-02-15T00:50:12;7.00;85.40
42097;DHT22;27754;45.414;11.084;2024-02-15T00:52:40;7.00;85.70
42097;DHT22;27754;45.414;11.084;2024-02-15T00:55:07;6.90;85.10
42097;DHT22;27754;45.414;11.084;2024-02-15T00:57:34;6.70;84.90
42097;DHT22;27754;45.414;11.084;2024-02-15T01:00:01;6.60;85.10
42097;DHT22;27754;45.414;11.084;2024-02-15T01:02:30;6.60;85.90
42097;DHT22;27754;45.414;11.084;2024-02-15T01:04:57;6.50;86.20
42097;DHT22;27754;45.414;11.084;2024-02-15T01:07:25;6.50;86.40
42097;DHT22;27754;45.414;11.084;2024-02-15T01:09:54;6.50;86.70
42097;DHT22;27754;45.414;11.084;2024-02-15T01:12:21;6.40;86.10
42097;DHT22;27754;45.414;11.084;2024-02-15T01:14:48;6.40;86.80
42097;DHT22;27754;45.414;11.084;2024-02-15T01:17:15;6.40;87.10
42097;DHT22;27754;45.414;11.084;2024-02-15T01:19:44;6.50;87.00
42097;DHT22;27754;45.414;11.084;2024-02-15T01:22:11;6.60;86.90
42097;DHT22;27754;45.414;11.084;2024-02-15T01:24:39;6.60;86.70
42097;DHT22;27754;45.414;11.084;2024-02-15T01:27:06;6.70;86.50
42097;DHT22;27754;45.414;11.084;2024-02-15T01:29:35;6.70;86.70
42097;DHT22;27754;45.414;11.084;2024-02-15T01:32:02;6.80;86.70
42097;DHT22;27754;45.414;11.084;2024-02-15T01:34:29;6.80;86.90
42097;DHT22;27754;45.414;11.084;2024-02-15T01:36:56;6.80;87.10
42097;DHT22;27754;45.414;11.084;2024-02-15T01:39:23;6.80;87.00
42097;DHT22;27754;45.414;11.084;2024-02-15T01:41:50;6.80;87.10
42097;DHT22;27754;45.414;11.084;2024-02-15T01:44:18;6.80;87.10
42097;DHT22;27754;45.414;11.084;2024-02-15T01:46:48;6.70;87.20
42097;DHT22;27754;45.414;11.084;2024-02-15T01:49:15;6.60;87.40
42097;DHT22;27754;45.414;11.084;2024-02-15T01:51:43;6.60;87.80
42097;DHT22;27754;45.414;11.084;2024-02-15T01:54:12;6.60;87.70
42097;DHT22;27754;45.414;11.084;2024-02-15T01:56:40;6.50;87.80
42097;DHT22;27754;45.414;11.084;2024-02-15T01:59:07;6.40;88.00
42097;DHT22;27754;45.414;11.084;2024-02-15T02:01:34;6.40;88.10
42097;DHT22;27754;45.414;11.084;2024-02-15T02:04:01;6.40;88.10
42097;DHT22;27754;45.414;11.084;2024-02-15T02:06:30;6.30;87.90
42097;DHT22;27754;45.414;11.084;2024-02-15T02:08:58;6.20;88.50
42097;DHT22;27754;45.414;11.084;2024-02-15T02:11:25;6.20;88.70
42097;DHT22;27754;45.414;11.084;2024-02-15T02:13:52;6.30;88.80
42097;DHT22;27754;45.414;11.084;2024-02-15T02:16:29;6.30;88.90
42097;DHT22;27754;45.414;11.084;2024-02-15T02:18:59;6.30;89.10
42097;DHT22;27754;45.414;11.084;2024-02-15T02:21:27;6.30;89.10
42097;DHT22;27754;45.414;11.084;2024-02-15T02:23:58;6.30;89.20
42097;DHT22;27754;45.414;11.084;2024-02-15T02:26:27;6.30;89.30
42097;DHT22;27754;45.414;11.084;2024-02-15T02:28:54;6.20;89.50
42097;DHT22;27754;45.414;11.084;2024-02-15T02:31:21;6.10;89.40
42097;DHT22;27754;45.414;11.084;2024-02-15T02:33:53;6.10;89.60
42097;DHT22;27754;45.414;11.084;2024-02-15T02:36:21;6.10;89.50
42097;DHT22;27754;45.414;11.084;2024-02-15T02:38:48;6.00;89.60
42097;DHT22;27754;45.414;11.084;2024-02-15T02:41:17;6.00;89.50
42097;DHT22;27754;45.414;11.084;2024-02-15T02:43:46;6.00;89.30
42097;DHT22;27754;45.414;11.084;2024-02-15T02:46:13;6.00;89.50
42097;DHT22;27754;45.414;11.084;2024-02-15T02:48:40;5.90;89.60
42097;DHT22;27754;45.414;11.084;2024-02-15T02:51:07;5.90;89.50
42097;DHT22;27754;45.414;11.084;2024-02-15T02:53:35;5.90;89.60
42097;DHT22;27754;45.414;11.084;2024-02-15T02:56:02;5.80;89.80
42097;DHT22;27754;45.414;11.084;2024-02-15T02:58:30;5.80;89.80
42097;DHT22;27754;45.414;11.084;2024-02-15T03:00:58;5.80;89.80
42097;DHT22;27754;45.414;11.084;2024-02-15T03:03:27;5.80;89.90
42097;DHT22;27754;45.414;11.084;2024-02-15T03:05:54;5.90;90.00
42097;DHT22;27754;45.414;11.084;2024-02-15T03:08:22;5.80;90.20
42097;DHT22;27754;45.414;11.084;2024-02-15T03:10:49;5.90;90.30
42097;DHT22;27754;45.414;11.084;2024-02-15T03:13:17;5.80;90.50
42097;DHT22;27754;45.414;11.084;2024-02-15T03:15:45;5.80;90.50
42097;DHT22;27754;45.414;11.084;2024-02-15T03:18:15;5.70;90.90
42097;DHT22;27754;45.414;11.084;2024-02-15T03:20:43;5.70;91.10
42097;DHT22;27754;45.414;11.084;2024-02-15T03:23:11;5.70;91.10
42097;DHT22;27754;45.414;11.084;2024-02-15T03:25:38;5.70;91.00
42097;DHT22;27754;45.414;11.084;2024-02-15T03:28:05;5.70;90.90
42097;DHT22;27754;45.414;11.084;2024-02-15T03:30:32;5.70;90.90
42097;DHT22;27754;45.414;11.084;2024-02-15T03:33:01;5.60;90.50
42097;DHT22;27754;45.414;11.084;2024-02-15T03:35:34;5.50;90.40
42097;DHT22;27754;45.414;11.084;2024-02-15T03:38:01;5.50;90.80
42097;DHT22;27754;45.414;11.084;2024-02-15T03:40:28;5.50;91.20
42097;DHT22;27754;45.414;11.084;2024-02-15T03:42:57;5.60;91.40
42097;DHT22;27754;45.414;11.084;2024-02-15T03:45:24;5.60;91.60
42097;DHT22;27754;45.414;11.084;2024-02-15T03:47:54;5.60;91.60
42097;DHT22;27754;45.414;11.084;2024-02-15T03:50:23;5.50;91.50
42097;DHT22;27754;45.414;11.084;2024-02-15T03:52:50;5.50;91.60
42097;DHT22;27754;45.414;11.084;2024-02-15T03:55:18;5.60;91.60
42097;DHT22;27754;45.414;11.084;2024-02-15T03:57:45;5.50;91.50
42097;DHT22;27754;45.414;11.084;2024-02-15T04:00:14;5.60;91.70
42097;DHT22;27754;45.414;11.084;2024-02-15T04:02:42;5.60;91.70
42097;DHT22;27754;45.414;11.084;2024-02-15T04:05:09;5.60;91.80
42097;DHT22;27754;45.414;11.084;2024-02-15T04:07:38;5.60;91.80
42097;DHT22;27754;45.414;11.084;2024-02-15T04:10:05;5.60;91.80
42097;DHT22;27754;45.414;11.084;2024-02-15T04:12:33;5.60;91.70
42097;DHT22;27754;45.414;11.084;2024-02-15T04:15:00;5.60;91.50
42097;DHT22;27754;45.414;11.084;2024-02-15T04:17:32;5.60;91.70
42097;DHT22;27754;45.414;11.084;2024-02-15T04:20:02;5.60;91.60
42097;DHT22;27754;45.414;11.084;2024-02-15T04:22:31;5.50;91.30
42097;DHT22;27754;45.414;11.084;2024-02-15T04:25:05;5.40;91.00
42097;DHT22;27754;45.414;11.084;2024-02-15T04:27:33;5.30;90.60
42097;DHT22;27754;45.414;11.084;2024-02-15T04:30:04;5.20;90.90
42097;DHT22;27754;45.414;11.084;2024-02-15T04:32:32;5.20;90.80
42097;DHT22;27754;45.414;11.084;2024-02-15T04:35:01;5.20;90.90
42097;DHT22;27754;45.414;11.084;2024-02-15T04:37:29;5.20;91.20
42097;DHT22;27754;45.414;11.084;2024-02-15T04:39:59;5.10;91.20
42097;DHT22;27754;45.414;11.084;2024-02-15T04:42:36;5.20;91.70
42097;DHT22;27754;45.414;11.084;2024-02-15T04:45:13;5.30;91.70
42097;DHT22;27754;45.414;11.084;2024-02-15T04:47:42;5.40;91.40
42097;DHT22;27754;45.414;11.084;2024-02-15T04:50:12;5.30;91.30
42097;DHT22;27754;45.414;11.084;2024-02-15T04:52:40;5.30;91.50
42097;DHT22;27754;45.414;11.084;2024-02-15T04:55:10;5.30;91.60
42097;DHT22;27754;45.414;11.084;2024-02-15T04:57:37;5.40;91.60
42097;DHT22;27754;45.414;11.084;2024-02-15T05:00:04;5.40;91.40
42097;DHT22;27754;45.414;11.084;2024-02-15T05:02:38;5.40;91.50
42097;DHT22;27754;45.414;11.084;2024-02-15T05:05:10;5.50;91.20
42097;DHT22;27754;45.414;11.084;2024-02-15T05:07:40;5.50;91.20
42097;DHT22;27754;45.414;11.084;2024-02-15T05:10:07;5.40;91.20
42097;DHT22;27754;45.414;11.084;2024-02-15T05:12:37;5.40;91.30
42097;DHT22;27754;45.414;11.084;2024-02-15T05:15:05;5.40;91.50
42097;DHT22;27754;45.414;11.084;2024-02-15T05:17:39;5.40;91.50
42097;DHT22;27754;45.414;11.084;2024-02-15T05:20:10;5.40;91.60
42097;DHT22;27754;45.414;11.084;2024-02-15T05:22:39;5.40;91.70
42097;DHT22;27754;45.414;11.084;2024-02-15T05:25:09;5.40;91.70
42097;DHT22;27754;45.414;11.084;2024-02-15T05:27:36;5.50;91.80
42097;DHT22;27754;45.414;11.084;2024-02-15T05:30:03;5.40;91.70
42097;DHT22;27754;45.414;11.084;2024-02-15T05:32:35;5.40;91.50
42097;DHT22;27754;45.414;11.084;2024-02-15T05:35:09;5.30;91.00
42097;DHT22;27754;45.414;11.084;2024-02-15T05:37:38;5.30;91.20
42097;DHT22;27754;45.414;11.084;2024-02-15T05:40:06;5.20;91.20
42097;DHT22;27754;45.414;11.084;2024-02-15T05:42:33;5.20;91.10
42097;DHT22;27754;45.414;11.084;2024-02-15T05:47:54;5.10;91.70
42097;DHT22;27754;45.414;11.084;2024-02-15T05:50:22;5.10;91.70
42097;DHT22;27754;45.414;11.084;2024-02-15T05:52:51;5.10;91.60
42097;DHT22;27754;45.414;11.084;2024-02-15T05:55:22;5.10;91.70
42097;DHT22;27754;45.414;11.084;2024-02-15T05:57:49;5.00;91.70
42097;DHT22;27754;45.414;11.084;2024-02-15T06:00:16;5.00;91.80
42097;DHT22;27754;45.414;11.084;2024-02-15T06:02:49;5.00;91.80
42097;DHT22;27754;45.414;11.084;2024-02-15T06:05:17;5.10;91.90
42097;DHT22;27754;45.414;11.084;2024-02-15T06:07:44;5.00;91.90
42097;DHT22;27754;45.414;11.084;2024-02-15T06:10:14;5.10;91.90
42097;DHT22;27754;45.414;11.084;2024-02-15T06:12:41;5.00;91.60
42097;DHT22;27754;45.414;11.084;2024-02-15T06:15:09;5.00;91.50
42097;DHT22;27754;45.414;11.084;2024-02-15T06:17:43;5.00;91.50
42097;DHT22;27754;45.414;11.084;2024-02-15T06:20:14;5.00;91.60
42097;DHT22;27754;45.414;11.084;2024-02-15T06:22:44;5.00;91.50
42097;DHT22;27754;45.414;11.084;2024-02-15T06:25:12;5.00;91.50
42097;DHT22;27754;45.414;11.084;2024-02-15T06:27:47;5.00;91.40
42097;DHT22;27754;45.414;11.084;2024-02-15T06:30:15;5.00;91.50
42097;DHT22;27754;45.414;11.084;2024-02-15T06:33:01;5.10;91.40
42097;DHT22;27754;45.414;11.084;2024-02-15T06:35:46;5.00;91.20
42097;DHT22;27754;45.414;11.084;2024-02-15T06:38:32;5.10;91.20
42097;DHT22;27754;45.414;11.084;2024-02-15T06:41:17;5.20;91.30
42097;DHT22;27754;45.414;11.084;2024-02-15T06:43:48;5.40;91.30
42097;DHT22;27754;45.414;11.084;2024-02-15T06:46:15;5.40;91.10
42097;DHT22;27754;45.414;11.084;2024-02-15T06:48:42;5.40;90.90
42097;DHT22;27754;45.414;11.084;2024-02-15T06:51:14;5.60;91.00
42097;DHT22;27754;45.414;11.084;2024-02-15T06:53:43;5.70;90.60
42097;DHT22;27754;45.414;11.084;2024-02-15T06:56:10;5.70;90.50
42097;DHT22;27754;45.414;11.084;2024-02-15T06:58:39;5.90;90.60
42097;DHT22;27754;45.414;11.084;2024-02-15T07:01:07;5.90;90.40
42097;DHT22;27754;45.414;11.084;2024-02-15T07:03:34;6.00;90.30
42097;DHT22;27754;45.414;11.084;2024-02-15T07:06:02;6.10;90.00
42097;DHT22;27754;45.414;11.084;2024-02-15T07:08:31;6.20;89.80
42097;DHT22;27754;45.414;11.084;2024-02-15T07:10:58;6.20;89.40
42097;DHT22;27754;45.414;11.084;2024-02-15T07:13:25;6.30;89.60
42097;DHT22;27754;45.414;11.084;2024-02-15T07:15:53;6.30;89.00
42097;DHT22;27754;45.414;11.084;2024-02-15T07:18:20;6.40;88.90
42097;DHT22;27754;45.414;11.084;2024-02-15T07:20:54;6.40;88.80
42097;DHT22;27754;45.414;11.084;2024-02-15T07:23:23;6.50;88.50
42097;DHT22;27754;45.414;11.084;2024-02-15T07:25:52;6.40;88.20
42097;DHT22;27754;45.414;11.084;2024-02-15T07:28:21;6.50;88.20
42097;DHT22;27754;45.414;11.084;2024-02-15T07:30:48;6.50;88.10
42097;DHT22;27754;45.414;11.084;2024-02-15T07:33:18;6.60;88.00
42097;DHT22;27754;45.414;11.084;2024-02-15T07:35:49;6.60;87.80
42097;DHT22;27754;45.414;11.084;2024-02-15T07:38:19;6.70;87.90
42097;DHT22;27754;45.414;11.084;2024-02-15T07:40:49;6.80;87.50
42097;DHT22;27754;45.414;11.084;2024-02-15T07:43:16;6.90;87.40
42097;DHT22;27754;45.414;11.084;2024-02-15T07:45:43;7.00;87.20
42097;DHT22;27754;45.414;11.084;2024-02-15T07:48:10;7.10;86.90
42097;DHT22;27754;45.414;11.084;2024-02-15T07:50:37;7.20;86.90
42097;DHT22;27754;45.414;11.084;2024-02-15T07:53:06;7.40;86.70
42097;DHT22;27754;45.414;11.084;2024-02-15T07:55:35;7.40;86.40
42097;DHT22;27754;45.414;11.084;2024-02-15T07:58:02;7.50;86.50
42097;DHT22;27754;45.414;11.084;2024-02-15T08:00:29;7.60;86.50
42097;DHT22;27754;45.414;11.084;2024-02-15T08:02:57;7.70;86.40
42097;DHT22;27754;45.414;11.084;2024-02-15T08:05:24;7.80;86.30
42097;DHT22;27754;45.414;11.084;2024-02-15T08:07:51;7.90;86.20
42097;DHT22;27754;45.414;11.084;2024-02-15T08:10:20;8.00;86.00
42097;DHT22;27754;45.414;11.084;2024-02-15T08:12:47;8.00;85.90
42097;DHT22;27754;45.414;11.084;2024-02-15T08:15:19;8.10;85.80
42097;DHT22;27754;45.414;11.084;2024-02-15T08:17:46;8.10;85.70
42097;DHT22;27754;45.414;11.084;2024-02-15T08:20:14;8.10;85.50
42097;DHT22;27754;45.414;11.084;2024-02-15T08:22:41;8.30;84.70
42097;DHT22;27754;45.414;11.084;2024-02-15T08:25:11;8.30;84.80
42097;DHT22;27754;45.414;11.084;2024-02-15T08:27:40;8.30;84.70
42097;DHT22;27754;45.414;11.084;2024-02-15T08:30:13;8.40;85.20
42097;DHT22;27754;45.414;11.084;2024-02-15T08:32:41;8.50;85.00
42097;DHT22;27754;45.414;11.084;2024-02-15T08:35:10;8.60;84.80
42097;DHT22;27754;45.414;11.084;2024-02-15T08:37:38;8.60;84.60
42097;DHT22;27754;45.414;11.084;2024-02-15T08:40:08;8.80;84.80
42097;DHT22;27754;45.414;11.084;2024-02-15T08:42:42;8.80;84.20
42097;DHT22;27754;45.414;11.084;2024-02-15T08:45:10;8.90;84.30
42097;DHT22;27754;45.414;11.084;2024-02-15T08:47:41;9.00;84.00
42097;DHT22;27754;45.414;11.084;2024-02-15T08:50:09;9.10;83.90
42097;DHT22;27754;45.414;11.084;2024-02-15T08:52:37;9.00;83.40
42097;DHT22;27754;45.414;11.084;2024-02-15T08:55:09;9.10;83.40
42097;DHT22;27754;45.414;11.084;2024-02-15T08:57:37;9.30;83.60
42097;DHT22;27754;45.414;11.084;2024-02-15T09:00:08;9.40;83.10
42097;DHT22;27754;45.414;11.084;2024-02-15T09:02:41;9.40;83.20
42097;DHT22;27754;45.414;11.084;2024-02-15T09:05:08;9.50;83.20
42097;DHT22;27754;45.414;11.084;2024-02-15T09:07:36;9.40;83.00
42097;DHT22;27754;45.414;11.084;2024-02-15T09:10:11;9.30;83.40
42097;DHT22;27754;45.414;11.084;2024-02-15T09:12:42;9.40;83.50
42097;DHT22;27754;45.414;11.084;2024-02-15T09:15:10;9.50;83.70
42097;DHT22;27754;45.414;11.084;2024-02-15T09:17:42;9.60;83.40
42097;DHT22;27754;45.414;11.084;2024-02-15T09:20:11;9.60;83.50
42097;DHT22;27754;45.414;11.084;2024-02-15T09:22:48;9.70;83.90
42097;DHT22;27754;45.414;11.084;2024-02-15T09:25:15;9.70;83.40
42097;DHT22;27754;45.414;11.084;2024-02-15T09:27:43;9.80;83.20
42097;DHT22;27754;45.414;11.084;2024-02-15T09:30:11;9.90;83.00
42097;DHT22;27754;45.414;11.084;2024-02-15T09:32:39;9.90;83.00
42097;DHT22;27754;45.414;11.084;2024-02-15T09:35:07;10.00;82.80
42097;DHT22;27754;45.414;11.084;2024-02-15T09:37:36;10.00;83.20
42097;DHT22;27754;45.414;11.084;2024-02-15T09:40:10;10.10;83.20
42097;DHT22;27754;45.414;11.084;2024-02-15T09:42:39;10.10;83.10
42097;DHT22;27754;45.414;11.084;2024-02-15T09:45:08;10.30;82.80
42097;DHT22;27754;45.414;11.084;2024-02-15T09:47:39;10.30;82.50
42097;DHT22;27754;45.414;11.084;2024-02-15T09:50:14;10.40;82.40
42097;DHT22;27754;45.414;11.084;2024-02-15T09:52:50;10.40;81.80
42097;DHT22;27754;45.414;11.084;2024-02-15T09:55:18;10.50;81.60
42097;DHT22;27754;45.414;11.084;2024-02-15T09:57:46;10.40;80.60
42097;DHT22;27754;45.414;11.084;2024-02-15T10:00:14;10.50;80.20
42097;DHT22;27754;45.414;11.084;2024-02-15T10:02:51;10.40;80.50
42097;DHT22;27754;45.414;11.084;2024-02-15T10:05:22;10.50;80.90
42097;DHT22;27754;45.414;11.084;2024-02-15T10:07:50;10.60;81.10
42097;DHT22;27754;45.414;11.084;2024-02-15T10:10:23;10.70;81.10
42097;DHT22;27754;45.414;11.084;2024-02-15T10:12:53;10.80;80.80
42097;DHT22;27754;45.414;11.084;2024-02-15T10:15:38;10.80;80.70
42097;DHT22;27754;45.414;11.084;2024-02-15T10:18:09;10.80;81.20
42097;DHT22;27754;45.414;11.084;2024-02-15T10:20:39;10.80;81.50
42097;DHT22;27754;45.414;11.084;2024-02-15T10:23:09;10.90;81.60
42097;DHT22;27754;45.414;11.084;2024-02-15T10:25:40;11.00;81.20
42097;DHT22;27754;45.414;11.084;2024-02-15T10:28:12;11.10;81.20
42097;DHT22;27754;45.414;11.084;2024-02-15T10:30:43;11.00;80.10
42097;DHT22;27754;45.414;11.084;2024-02-15T10:33:20;11.00;80.20
42097;DHT22;27754;45.414;11.084;2024-02-15T10:36:13;11.10;80.20
42097;DHT22;27754;45.414;11.084;2024-02-15T10:38:41;11.30;79.80
42097;DHT22;27754;45.414;11.084;2024-02-15T10:41:09;11.40;79.20
42097;DHT22;27754;45.414;11.084;2024-02-15T10:43:37;11.50;79.00
42097;DHT22;27754;45.414;11.084;2024-02-15T10:46:06;11.60;79.50
42097;DHT22;27754;45.414;11.084;2024-02-15T10:48:37;11.70;79.50
42097;DHT22;27754;45.414;11.084;2024-02-15T10:51:10;11.80;79.30
42097;DHT22;27754;45.414;11.084;2024-02-15T10:53:41;11.70;79.70
42097;DHT22;27754;45.414;11.084;2024-02-15T10:56:18;11.70;79.50
42097;DHT22;27754;45.414;11.084;2024-02-15T10:58:51;11.80;79.40
42097;DHT22;27754;45.414;11.084;2024-02-15T11:01:22;11.70;79.40
42097;DHT22;27754;45.414;11.084;2024-02-15T11:03:59;11.70;79.50
42097;DHT22;27754;45.414;11.084;2024-02-15T11:06:27;11.80;79.70
42097;DHT22;27754;45.414;11.084;2024-02-15T11:08:56;11.80;79.50
42097;DHT22;27754;45.414;11.084;2024-02-15T11:11:25;11.90;79.60
42097;DHT22;27754;45.414;11.084;2024-02-15T11:14:24;11.90;79.50
42097;DHT22;27754;45.414;11.084;2024-02-15T11:16:51;12.00;79.20
42097;DHT22;27754;45.414;11.084;2024-02-15T11:19:44;12.10;79.40
42097;DHT22;27754;45.414;11.084;2024-02-15T11:22:15;12.10;79.40
42097;DHT22;27754;45.414;11.084;2024-02-15T11:24:50;11.90;78.10
42097;DHT22;27754;45.414;11.084;2024-02-15T11:30:00;11.90;78.30
42097;DHT22;27754;45.414;11.084;2024-02-15T11:32:40;11.90;77.70
42097;DHT22;27754;45.414;11.084;2024-02-15T11:35:18;11.90;78.60
42097;DHT22;27754;45.414;11.084;2024-02-15T11:40:23;12.00;78.90
42097;DHT22;27754;45.414;11.084;2024-02-15T11:42:52;12.10;79.00
42097;DHT22;27754;45.414;11.084;2024-02-15T11:45:24;12.10;79.20
42097;DHT22;27754;45.414;11.084;2024-02-15T11:47:55;12.20;79.40
42097;DHT22;27754;45.414;11.084;2024-02-15T11:50:23;12.30;79.10
42097;DHT22;27754;45.414;11.084;2024-02-15T11:52:51;12.40;79.10
42097;DHT22;27754;45.414;11.084;2024-02-15T11:55:19;12.40;78.90
42097;DHT22;27754;45.414;11.084;2024-02-15T11:58:01;12.50;79.10
42097;DHT22;27754;45.414;11.084;2024-02-15T12:00:39;12.60;78.80
42097;DHT22;27754;45.414;11.084;2024-02-15T12:03:25;12.50;79.10
42097;DHT22;27754;45.414;11.084;2024-02-15T12:06:30;12.50;79.10
42097;DHT22;27754;45.414;11.084;2024-02-15T12:09:20;12.50;79.30
42097;DHT22;27754;45.414;11.084;2024-02-15T12:12:06;12.60;78.50
42097;DHT22;27754;45.414;11.084;2024-02-15T12:15:01;12.80;78.20
42097;DHT22;27754;45.414;11.084;2024-02-15T12:17:48;12.90;77.70
42097;DHT22;27754;45.414;11.084;2024-02-15T12:20:34;12.80;76.50
42097;DHT22;27754;45.414;11.084;2024-02-15T12:23:02;12.90;76.60
42097;DHT22;27754;45.414;11.084;2024-02-15T12:25:29;12.90;76.90
42097;DHT22;27754;45.414;11.084;2024-02-15T12:28:00;12.90;77.50
42097;DHT22;27754;45.414;11.084;2024-02-15T12:30:35;13.00;77.80
42097;DHT22;27754;45.414;11.084;2024-02-15T12:33:11;13.00;76.90
42097;DHT22;27754;45.414;11.084;2024-02-15T12:35:40;12.90;75.00
42097;DHT22;27754;45.414;11.084;2024-02-15T12:38:12;13.00;76.20
42097;DHT22;27754;45.414;11.084;2024-02-15T12:40:42;13.10;76.30
42097;DHT22;27754;45.414;11.084;2024-02-15T12:43:13;13.10;76.40
42097;DHT22;27754;45.414;11.084;2024-02-15T12:45:42;13.20;76.80
42097;DHT22;27754;45.414;11.084;2024-02-15T12:48:09;13.20;77.00
42097;DHT22;27754;45.414;11.084;2024-02-15T12:50:38;13.40;76.30
42097;DHT22;27754;45.414;11.084;2024-02-15T12:53:05;13.30;75.90
42097;DHT22;27754;45.414;11.084;2024-02-15T12:55:36;13.40;76.20
42097;DHT22;27754;45.414;11.084;2024-02-15T12:58:06;13.40;76.20
42097;DHT22;27754;45.414;11.084;2024-02-15T13:00:36;13.40;75.90
42097;DHT22;27754;45.414;11.084;2024-02-15T13:03:11;13.40;75.20
42097;DHT22;27754;45.414;11.084;2024-02-15T13:05:40;13.40;75.20
42097;DHT22;27754;45.414;11.084;2024-02-15T13:08:08;13.50;74.20
42097;DHT22;27754;45.414;11.084;2024-02-15T13:10:41;13.30;74.50
42097;DHT22;27754;45.414;11.084;2024-02-15T13:13:09;13.50;74.50
42097;DHT22;27754;45.414;11.084;2024-02-15T13:15:41;13.40;74.80
42097;DHT22;27754;45.414;11.084;2024-02-15T13:18:09;13.50;74.60
42097;DHT22;27754;45.414;11.084;2024-02-15T13:20:38;13.50;74.30
42097;DHT22;27754;45.414;11.084;2024-02-15T13:23:07;13.50;74.20
42097;DHT22;27754;45.414;11.084;2024-02-15T13:25:42;13.50;73.90
42097;DHT22;27754;45.414;11.084;2024-02-15T13:28:11;13.50;73.60
42097;DHT22;27754;45.414;11.084;2024-02-15T13:30:40;13.50;73.90
42097;DHT22;27754;45.414;11.084;2024-02-15T13:33:08;13.50;73.90
42097;DHT22;27754;45.414;11.084;2024-02-15T13:35:35;13.60;73.80
42097;DHT22;27754;45.414;11.084;2024-02-15T13:38:03;13.60;73.80
42097;DHT22;27754;45.414;11.084;2024-02-15T13:40:30;13.60;73.20
42097;DHT22;27754;45.414;11.084;2024-02-15T13:42:59;13.60;73.10
42097;DHT22;27754;45.414;11.084;2024-02-15T13:45:39;13.70;72.80
42097;DHT22;27754;45.414;11.084;2024-02-15T13:48:07;13.70;72.70
42097;DHT22;27754;45.414;11.084;2024-02-15T13:50:36;13.70;72.90
42097;DHT22;27754;45.414;11.084;2024-02-15T13:53:04;13.70;72.90
42097;DHT22;27754;45.414;11.084;2024-02-15T13:55:31;13.70;72.50
42097;DHT22;27754;45.414;11.084;2024-02-15T13:57:59;13.60;72.80
42097;DHT22;27754;45.414;11.084;2024-02-15T14:00:28;13.60;72.20
42097;DHT22;27754;45.414;11.084;2024-02-15T14:03:02;13.70;72.40
42097;DHT22;27754;45.414;11.084;2024-02-15T14:05:30;13.80;72.20
42097;DHT22;27754;45.414;11.084;2024-02-15T14:07:59;13.80;71.80
42097;DHT22;27754;45.414;11.084;2024-02-15T14:10:29;13.70;72.60
42097;DHT22;27754;45.414;11.084;2024-02-15T14:12:56;13.80;72.30
42097;DHT22;27754;45.414;11.084;2024-02-15T14:15:32;13.80;72.20
42097;DHT22;27754;45.414;11.084;2024-02-15T14:18:10;13.80;72.30
42097;DHT22;27754;45.414;11.084;2024-02-15T14:20:40;13.80;72.10
42097;DHT22;27754;45.414;11.084;2024-02-15T14:23:10;13.80;72.10
42097;DHT22;27754;45.414;11.084;2024-02-15T14:25:44;13.80;72.20
42097;DHT22;27754;45.414;11.084;2024-02-15T14:28:12;13.80;71.90
42097;DHT22;27754;45.414;11.084;2024-02-15T14:30:41;13.90;71.30
42097;DHT22;27754;45.414;11.084;2024-02-15T14:33:26;13.80;70.80
42097;DHT22;27754;45.414;11.084;2024-02-15T14:35:56;13.80;71.10
42097;DHT22;27754;45.414;11.084;2024-02-15T14:38:26;13.80;71.30
42097;DHT22;27754;45.414;11.084;2024-02-15T14:40:53;13.70;71.50
42097;DHT22;27754;45.414;11.084;2024-02-15T14:43:23;13.80;71.30
42097;DHT22;27754;45.414;11.084;2024-02-15T14:45:53;13.80;71.60
42097;DHT22;27754;45.414;11.084;2024-02-15T14:48:21;13.80;71.40
42097;DHT22;27754;45.414;11.084;2024-02-15T14:50:48;13.70;70.80
42097;DHT22;27754;45.414;11.084;2024-02-15T14:53:18;13.60;71.20
42097;DHT22;27754;45.414;11.084;2024-02-15T14:55:45;13.60;71.50
42097;DHT22;27754;45.414;11.084;2024-02-15T14:58:13;13.70;71.60
42097;DHT22;27754;45.414;11.084;2024-02-15T15:00:44;13.70;71.20
42097;DHT22;27754;45.414;11.084;2024-02-15T15:03:15;13.80;71.00
42097;DHT22;27754;45.414;11.084;2024-02-15T15:05:43;13.70;71.20
42097;DHT22;27754;45.414;11.084;2024-02-15T15:08:30;13.80;71.40
42097;DHT22;27754;45.414;11.084;2024-02-15T15:11:16;13.70;71.40
42097;DHT22;27754;45.414;11.084;2024-02-15T15:14:01;13.70;70.70
42097;DHT22;27754;45.414;11.084;2024-02-15T15:16:32;13.70;71.20
42097;DHT22;27754;45.414;11.084;2024-02-15T15:19:01;13.50;71.40
42097;DHT22;27754;45.414;11.084;2024-02-15T15:21:29;13.50;71.70
42097;DHT22;27754;45.414;11.084;2024-02-15T15:23:56;13.50;71.90
42097;DHT22;27754;45.414;11.084;2024-02-15T15:26:24;13.50;72.10
42097;DHT22;27754;45.414;11.084;2024-02-15T15:28:51;13.40;72.10
42097;DHT22;27754;45.414;11.084;2024-02-15T15:31:18;13.40;71.90
42097;DHT22;27754;45.414;11.084;2024-02-15T15:33:48;13.30;72.30
42097;DHT22;27754;45.414;11.084;2024-02-15T15:36:17;13.30;72.50
42097;DHT22;27754;45.414;11.084;2024-02-15T15:38:47;13.30;72.90
42097;DHT22;27754;45.414;11.084;2024-02-15T15:41:14;13.30;73.20
42097;DHT22;27754;45.414;11.084;2024-02-15T15:43:42;13.20;73.30
42097;DHT22;27754;45.414;11.084;2024-02-15T15:46:13;13.10;73.30
42097;DHT22;27754;45.414;11.084;2024-02-15T15:48:41;13.10;73.20
42097;DHT22;27754;45.414;11.084;2024-02-15T15:51:08;13.00;73.20